sensor_id;sensor_type;location;lat;lon;timestamp;P1;durP1;ratioP1;P2;durP2;ratioP2
70806;SDS011;58882;52.170;5.386;2022-08-19T00:01:38;8.00;;;5.10;;
70806;SDS011;58882;52.170;5.386;2022-08-19T00:04:26;8.50;;;4.90;;
70806;SDS011;58882;52.170;5.386;2022-08-19T00:07:16;10.20;;;5.57;;
70806;SDS011;58882;52.170;5.386;2022-08-19T00:09:49;9.38;;;4.93;;
70806;SDS011;58882;52.170;5.386;2022-08-19T00:12:43;9.30;;;4.82;;
70806;SDS011;58882;52.170;5.386;2022-08-19T00:15:23;7.80;;;4.63;;
70806;SDS011;58882;52.170;5.386;2022-08-19T00:18:10;7.22;;;4.40;;
70806;SDS011;58882;52.170;5.386;2022-08-19T00:20:50;9.98;;;4.82;;
70806;SDS011;58882;52.170;5.386;2022-08-19T00:23:37;8.55;;;4.72;;
70806;SDS011;58882;52.170;5.386;2022-08-19T00:26:19;8.63;;;5.00;;
70806;SDS011;58882;52.170;5.386;2022-08-19T00:29:08;9.85;;;5.25;;
70806;SDS011;58882;52.170;5.386;2022-08-19T00:31:51;10.55;;;5.30;;
70806;SDS011;58882;52.170;5.386;2022-08-19T00:34:39;11.15;;;5.78;;
70806;SDS011;58882;52.170;5.386;2022-08-19T00:37:20;8.13;;;5.10;;
70806;SDS011;58882;52.170;5.386;2022-08-19T00:40:08;10.23;;;5.75;;
70806;SDS011;58882;52.170;5.386;2022-08-19T00:42:50;10.15;;;5.80;;
70806;SDS011;58882;52.170;5.386;2022-08-19T00:45:44;9.68;;;6.03;;
70806;SDS011;58882;52.170;5.386;2022-08-19T00:48:17;11.75;;;6.78;;
70806;SDS011;58882;52.170;5.386;2022-08-19T00:51:13;10.38;;;6.57;;
70806;SDS011;58882;52.170;5.386;2022-08-19T00:53:54;9.90;;;6.63;;
70806;SDS011;58882;52.170;5.386;2022-08-19T00:56:43;12.68;;;7.10;;
70806;SDS011;58882;52.170;5.386;2022-08-19T00:59:27;12.75;;;7.07;;
70806;SDS011;58882;52.170;5.386;2022-08-19T01:02:41;11.27;;;7.28;;
70806;SDS011;58882;52.170;5.386;2022-08-19T01:05:23;13.05;;;7.25;;
70806;SDS011;58882;52.170;5.386;2022-08-19T01:08:16;13.25;;;7.63;;
70806;SDS011;58882;52.170;5.386;2022-08-19T01:10:56;13.05;;;7.97;;
70806;SDS011;58882;52.170;5.386;2022-08-19T01:13:52;11.48;;;7.80;;
70806;SDS011;58882;52.170;5.386;2022-08-19T01:16:26;12.02;;;7.38;;
70806;SDS011;58882;52.170;5.386;2022-08-19T01:22:25;10.82;;;7.63;;
70806;SDS011;58882;52.170;5.386;2022-08-19T01:25:13;14.15;;;8.52;;
70806;SDS011;58882;52.170;5.386;2022-08-19T01:28:14;14.95;;;8.52;;
70806;SDS011;58882;52.170;5.386;2022-08-19T01:31:25;13.57;;;7.95;;
70806;SDS011;58882;52.170;5.386;2022-08-19T01:34:20;14.32;;;8.13;;
70806;SDS011;58882;52.170;5.386;2022-08-19T01:37:00;11.40;;;7.40;;
70806;SDS011;58882;52.170;5.386;2022-08-19T01:40:06;12.75;;;7.30;;
70806;SDS011;58882;52.170;5.386;2022-08-19T01:42:41;11.75;;;7.30;;
70806;SDS011;58882;52.170;5.386;2022-08-19T01:45:35;11.85;;;7.55;;
70806;SDS011;58882;52.170;5.386;2022-08-19T01:48:10;12.05;;;7.47;;
70806;SDS011;58882;52.170;5.386;2022-08-19T01:51:04;11.15;;;6.85;;
70806;SDS011;58882;52.170;5.386;2022-08-19T01:53:39;12.65;;;8.07;;
70806;SDS011;58882;52.170;5.386;2022-08-19T01:56:34;13.15;;;7.13;;
70806;SDS011;58882;52.170;5.386;2022-08-19T01:59:10;11.15;;;6.90;;
70806;SDS011;58882;52.170;5.386;2022-08-19T02:02:08;12.05;;;8.02;;
70806;SDS011;58882;52.170;5.386;2022-08-19T02:04:55;11.63;;;7.53;;
70806;SDS011;58882;52.170;5.386;2022-08-19T02:07:35;12.25;;;7.25;;
70806;SDS011;58882;52.170;5.386;2022-08-19T02:10:24;11.93;;;7.03;;
70806;SDS011;58882;52.170;5.386;2022-08-19T02:13:04;12.18;;;6.97;;
70806;SDS011;58882;52.170;5.386;2022-08-19T02:15:51;11.57;;;6.85;;
70806;SDS011;58882;52.170;5.386;2022-08-19T02:18:31;9.13;;;5.82;;
70806;SDS011;58882;52.170;5.386;2022-08-19T02:21:18;11.63;;;6.22;;
70806;SDS011;58882;52.170;5.386;2022-08-19T02:24:00;11.13;;;6.20;;
70806;SDS011;58882;52.170;5.386;2022-08-19T02:26:47;11.73;;;6.63;;
70806;SDS011;58882;52.170;5.386;2022-08-19T02:29:34;11.10;;;5.90;;
70806;SDS011;58882;52.170;5.386;2022-08-19T02:32:14;8.48;;;5.18;;
70806;SDS011;58882;52.170;5.386;2022-08-19T02:35:02;11.43;;;5.53;;
70806;SDS011;58882;52.170;5.386;2022-08-19T02:37:44;13.02;;;6.00;;
70806;SDS011;58882;52.170;5.386;2022-08-19T02:40:51;11.70;;;5.43;;
70806;SDS011;58882;52.170;5.386;2022-08-19T02:43:34;11.77;;;5.53;;
70806;SDS011;58882;52.170;5.386;2022-08-19T02:46:44;14.02;;;7.50;;
70806;SDS011;58882;52.170;5.386;2022-08-19T02:49:25;9.48;;;5.90;;
70806;SDS011;58882;52.170;5.386;2022-08-19T02:52:13;9.80;;;5.60;;
70806;SDS011;58882;52.170;5.386;2022-08-19T02:54:53;13.95;;;9.18;;
70806;SDS011;58882;52.170;5.386;2022-08-19T02:57:44;15.82;;;9.60;;
70806;SDS011;58882;52.170;5.386;2022-08-19T03:00:24;15.75;;;9.43;;
70806;SDS011;58882;52.170;5.386;2022-08-19T03:03:13;18.30;;;9.55;;
70806;SDS011;58882;52.170;5.386;2022-08-19T03:06:02;14.88;;;8.10;;
70806;SDS011;58882;52.170;5.386;2022-08-19T03:08:52;12.75;;;7.70;;
70806;SDS011;58882;52.170;5.386;2022-08-19T03:11:33;12.07;;;7.63;;
70806;SDS011;58882;52.170;5.386;2022-08-19T03:14:20;12.20;;;6.90;;
70806;SDS011;58882;52.170;5.386;2022-08-19T03:17:00;11.23;;;6.68;;
70806;SDS011;58882;52.170;5.386;2022-08-19T03:19:48;11.85;;;7.07;;
70806;SDS011;58882;52.170;5.386;2022-08-19T03:22:28;10.57;;;6.10;;
70806;SDS011;58882;52.170;5.386;2022-08-19T03:25:15;10.45;;;5.63;;
70806;SDS011;58882;52.170;5.386;2022-08-19T03:28:03;10.98;;;6.05;;
70806;SDS011;58882;52.170;5.386;2022-08-19T03:30:54;10.90;;;6.10;;
70806;SDS011;58882;52.170;5.386;2022-08-19T03:34:05;11.52;;;6.22;;
70806;SDS011;58882;52.170;5.386;2022-08-19T03:36:46;12.48;;;6.20;;
70806;SDS011;58882;52.170;5.386;2022-08-19T03:39:35;12.52;;;6.90;;
70806;SDS011;58882;52.170;5.386;2022-08-19T03:42:17;10.20;;;5.57;;
70806;SDS011;58882;52.170;5.386;2022-08-19T03:45:26;9.80;;;5.93;;
70806;SDS011;58882;52.170;5.386;2022-08-19T03:48:07;9.55;;;5.50;;
70806;SDS011;58882;52.170;5.386;2022-08-19T03:50:55;11.63;;;5.68;;
70806;SDS011;58882;52.170;5.386;2022-08-19T03:53:35;9.20;;;4.82;;
70806;SDS011;58882;52.170;5.386;2022-08-19T03:56:29;9.90;;;5.30;;
70806;SDS011;58882;52.170;5.386;2022-08-19T03:59:11;10.32;;;5.38;;
70806;SDS011;58882;52.170;5.386;2022-08-19T04:02:08;10.05;;;5.50;;
70806;SDS011;58882;52.170;5.386;2022-08-19T04:04:52;8.32;;;4.88;;
70806;SDS011;58882;52.170;5.386;2022-08-19T04:07:40;9.13;;;5.03;;
70806;SDS011;58882;52.170;5.386;2022-08-19T04:10:21;11.57;;;5.38;;
70806;SDS011;58882;52.170;5.386;2022-08-19T04:13:16;10.30;;;5.40;;
70806;SDS011;58882;52.170;5.386;2022-08-19T04:15:50;8.75;;;4.53;;
70806;SDS011;58882;52.170;5.386;2022-08-19T04:18:44;13.23;;;5.57;;
70806;SDS011;58882;52.170;5.386;2022-08-19T04:21:24;9.90;;;4.82;;
70806;SDS011;58882;52.170;5.386;2022-08-19T04:24:13;11.48;;;5.03;;
70806;SDS011;58882;52.170;5.386;2022-08-19T04:26:54;12.07;;;5.57;;
70806;SDS011;58882;52.170;5.386;2022-08-19T04:29:41;11.40;;;6.53;;
70806;SDS011;58882;52.170;5.386;2022-08-19T04:32:21;10.38;;;6.20;;
70806;SDS011;58882;52.170;5.386;2022-08-19T04:35:08;9.65;;;5.97;;
70806;SDS011;58882;52.170;5.386;2022-08-19T04:37:52;10.55;;;5.82;;
70806;SDS011;58882;52.170;5.386;2022-08-19T04:40:39;9.82;;;6.32;;
70806;SDS011;58882;52.170;5.386;2022-08-19T04:43:44;10.38;;;5.15;;
70806;SDS011;58882;52.170;5.386;2022-08-19T04:46:31;9.60;;;5.82;;
70806;SDS011;58882;52.170;5.386;2022-08-19T04:52:10;11.48;;;5.85;;
70806;SDS011;58882;52.170;5.386;2022-08-19T04:54:50;10.73;;;6.07;;
70806;SDS011;58882;52.170;5.386;2022-08-19T04:57:37;14.48;;;6.10;;
70806;SDS011;58882;52.170;5.386;2022-08-19T05:00:19;10.13;;;6.20;;
70806;SDS011;58882;52.170;5.386;2022-08-19T05:03:06;11.98;;;5.72;;
70806;SDS011;58882;52.170;5.386;2022-08-19T05:05:46;13.32;;;6.18;;
70806;SDS011;58882;52.170;5.386;2022-08-19T05:08:34;11.80;;;7.03;;
70806;SDS011;58882;52.170;5.386;2022-08-19T05:11:17;20.35;;;6.80;;
70806;SDS011;58882;52.170;5.386;2022-08-19T05:14:12;11.35;;;6.25;;
70806;SDS011;58882;52.170;5.386;2022-08-19T05:16:52;10.73;;;5.95;;
70806;SDS011;58882;52.170;5.386;2022-08-19T05:19:59;13.93;;;6.47;;
70806;SDS011;58882;52.170;5.386;2022-08-19T05:22:58;14.73;;;7.95;;
70806;SDS011;58882;52.170;5.386;2022-08-19T05:26:01;19.00;;;9.07;;
70806;SDS011;58882;52.170;5.386;2022-08-19T05:28:48;18.50;;;9.18;;
70806;SDS011;58882;52.170;5.386;2022-08-19T05:31:28;23.00;;;11.57;;
70806;SDS011;58882;52.170;5.386;2022-08-19T05:34:20;22.42;;;11.65;;
70806;SDS011;58882;52.170;5.386;2022-08-19T05:37:02;22.15;;;11.75;;
70806;SDS011;58882;52.170;5.386;2022-08-19T05:39:51;23.02;;;11.70;;
70806;SDS011;58882;52.170;5.386;2022-08-19T05:42:31;22.90;;;11.30;;
70806;SDS011;58882;52.170;5.386;2022-08-19T05:45:18;16.05;;;8.73;;
70806;SDS011;58882;52.170;5.386;2022-08-19T05:47:51;16.50;;;7.55;;
70806;SDS011;58882;52.170;5.386;2022-08-19T05:50:45;15.43;;;7.35;;
70806;SDS011;58882;52.170;5.386;2022-08-19T05:53:19;12.90;;;6.30;;
70806;SDS011;58882;52.170;5.386;2022-08-19T05:56:16;13.85;;;6.15;;
70806;SDS011;58882;52.170;5.386;2022-08-19T05:58:57;13.13;;;7.20;;
70806;SDS011;58882;52.170;5.386;2022-08-19T06:01:46;16.98;;;7.82;;
70806;SDS011;58882;52.170;5.386;2022-08-19T06:04:24;17.98;;;8.82;;
70806;SDS011;58882;52.170;5.386;2022-08-19T06:07:18;17.83;;;9.32;;
70806;SDS011;58882;52.170;5.386;2022-08-19T06:09:58;16.13;;;9.18;;
70806;SDS011;58882;52.170;5.386;2022-08-19T06:12:45;16.27;;;8.73;;
70806;SDS011;58882;52.170;5.386;2022-08-19T06:15:25;18.90;;;10.32;;
70806;SDS011;58882;52.170;5.386;2022-08-19T06:18:14;17.33;;;9.93;;
70806;SDS011;58882;52.170;5.386;2022-08-19T06:21:10;17.75;;;10.32;;
70806;SDS011;58882;52.170;5.386;2022-08-19T06:24:05;21.08;;;11.70;;
70806;SDS011;58882;52.170;5.386;2022-08-19T06:26:47;19.58;;;10.40;;
70806;SDS011;58882;52.170;5.386;2022-08-19T06:29:40;20.75;;;11.05;;
70806;SDS011;58882;52.170;5.386;2022-08-19T06:32:21;20.52;;;11.98;;
70806;SDS011;58882;52.170;5.386;2022-08-19T06:35:08;22.88;;;11.68;;
70806;SDS011;58882;52.170;5.386;2022-08-19T06:37:48;31.25;;;11.70;;
70806;SDS011;58882;52.170;5.386;2022-08-19T06:40:35;20.65;;;11.15;;
70806;SDS011;58882;52.170;5.386;2022-08-19T06:43:17;34.75;;;19.77;;
70806;SDS011;58882;52.170;5.386;2022-08-19T06:46:09;33.92;;;18.98;;
70806;SDS011;58882;52.170;5.386;2022-08-19T06:48:53;37.60;;;19.63;;
70806;SDS011;58882;52.170;5.386;2022-08-19T06:51:49;37.47;;;20.10;;
70806;SDS011;58882;52.170;5.386;2022-08-19T06:54:30;37.83;;;20.00;;
70806;SDS011;58882;52.170;5.386;2022-08-19T06:57:35;42.70;;;20.73;;
70806;SDS011;58882;52.170;5.386;2022-08-19T07:00:08;43.70;;;20.40;;
70806;SDS011;58882;52.170;5.386;2022-08-19T07:03:03;43.35;;;21.63;;
70806;SDS011;58882;52.170;5.386;2022-08-19T07:05:45;48.58;;;22.40;;
70806;SDS011;58882;52.170;5.386;2022-08-19T07:08:32;43.92;;;20.98;;
70806;SDS011;58882;52.170;5.386;2022-08-19T07:11:15;42.80;;;21.15;;
70806;SDS011;58882;52.170;5.386;2022-08-19T07:14:03;47.05;;;22.30;;
70806;SDS011;58882;52.170;5.386;2022-08-19T07:16:52;49.10;;;24.65;;
70806;SDS011;58882;52.170;5.386;2022-08-19T07:19:40;54.65;;;23.98;;
70806;SDS011;58882;52.170;5.386;2022-08-19T07:22:22;51.75;;;24.02;;
70806;SDS011;58882;52.170;5.386;2022-08-19T07:25:09;51.75;;;24.80;;
70806;SDS011;58882;52.170;5.386;2022-08-19T07:27:56;46.53;;;21.60;;
70806;SDS011;58882;52.170;5.386;2022-08-19T07:31:03;43.33;;;21.85;;
70806;SDS011;58882;52.170;5.386;2022-08-19T07:33:43;43.58;;;20.67;;
70806;SDS011;58882;52.170;5.386;2022-08-19T07:36:34;37.55;;;20.35;;
70806;SDS011;58882;52.170;5.386;2022-08-19T07:39:18;40.70;;;21.42;;
70806;SDS011;58882;52.170;5.386;2022-08-19T07:42:14;39.42;;;20.05;;
70806;SDS011;58882;52.170;5.386;2022-08-19T07:44:54;40.50;;;20.90;;
70806;SDS011;58882;52.170;5.386;2022-08-19T07:47:41;36.08;;;20.48;;
70806;SDS011;58882;52.170;5.386;2022-08-19T07:50:22;38.05;;;18.83;;
70806;SDS011;58882;52.170;5.386;2022-08-19T07:53:16;37.85;;;19.75;;
70806;SDS011;58882;52.170;5.386;2022-08-19T07:55:56;36.40;;;19.40;;
70806;SDS011;58882;52.170;5.386;2022-08-19T07:58:44;35.20;;;19.55;;
70806;SDS011;58882;52.170;5.386;2022-08-19T08:01:26;38.60;;;19.83;;
70806;SDS011;58882;52.170;5.386;2022-08-19T08:04:21;37.53;;;19.45;;
70806;SDS011;58882;52.170;5.386;2022-08-19T08:07:13;32.17;;;18.00;;
70806;SDS011;58882;52.170;5.386;2022-08-19T08:10:26;34.70;;;18.05;;
70806;SDS011;58882;52.170;5.386;2022-08-19T08:12:59;30.75;;;17.48;;
70806;SDS011;58882;52.170;5.386;2022-08-19T08:15:53;32.38;;;17.58;;
70806;SDS011;58882;52.170;5.386;2022-08-19T08:18:33;29.55;;;17.27;;
70806;SDS011;58882;52.170;5.386;2022-08-19T08:21:32;29.05;;;17.30;;
70806;SDS011;58882;52.170;5.386;2022-08-19T08:24:18;29.65;;;16.63;;
70806;SDS011;58882;52.170;5.386;2022-08-19T08:27:07;28.15;;;17.00;;
70806;SDS011;58882;52.170;5.386;2022-08-19T08:29:56;30.10;;;17.42;;
70806;SDS011;58882;52.170;5.386;2022-08-19T08:32:41;30.15;;;16.55;;
70806;SDS011;58882;52.170;5.386;2022-08-19T08:35:29;27.85;;;14.95;;
70806;SDS011;58882;52.170;5.386;2022-08-19T08:38:02;29.27;;;16.05;;
70806;SDS011;58882;52.170;5.386;2022-08-19T08:40:58;27.05;;;16.10;;
70806;SDS011;58882;52.170;5.386;2022-08-19T08:43:48;30.63;;;16.80;;
70806;SDS011;58882;52.170;5.386;2022-08-19T08:46:46;27.67;;;16.27;;
70806;SDS011;58882;52.170;5.386;2022-08-19T08:52:43;26.38;;;15.00;;
70806;SDS011;58882;52.170;5.386;2022-08-19T08:55:25;25.92;;;14.30;;
70806;SDS011;58882;52.170;5.386;2022-08-19T08:58:25;22.73;;;14.27;;
70806;SDS011;58882;52.170;5.386;2022-08-19T09:01:14;25.08;;;15.07;;
70806;SDS011;58882;52.170;5.386;2022-08-19T09:04:09;22.33;;;13.68;;
70806;SDS011;58882;52.170;5.386;2022-08-19T09:13:07;21.27;;;13.70;;
70806;SDS011;58882;52.170;5.386;2022-08-19T09:16:05;19.98;;;12.60;;
70806;SDS011;58882;52.170;5.386;2022-08-19T09:18:50;21.13;;;12.32;;
70806;SDS011;58882;52.170;5.386;2022-08-19T09:21:47;19.10;;;11.35;;
70806;SDS011;58882;52.170;5.386;2022-08-19T09:24:28;17.42;;;10.88;;
70806;SDS011;58882;52.170;5.386;2022-08-19T09:27:15;18.98;;;10.80;;
70806;SDS011;58882;52.170;5.386;2022-08-19T09:30:25;17.45;;;10.38;;
70806;SDS011;58882;52.170;5.386;2022-08-19T09:33:14;19.05;;;12.00;;
70806;SDS011;58882;52.170;5.386;2022-08-19T09:36:05;17.65;;;11.20;;
70806;SDS011;58882;52.170;5.386;2022-08-19T09:39:13;20.13;;;11.77;;
70806;SDS011;58882;52.170;5.386;2022-08-19T09:41:48;17.67;;;11.68;;
70806;SDS011;58882;52.170;5.386;2022-08-19T09:44:43;17.23;;;11.60;;
70806;SDS011;58882;52.170;5.386;2022-08-19T09:47:24;17.27;;;10.45;;
70806;SDS011;58882;52.170;5.386;2022-08-19T09:50:11;17.75;;;11.00;;
70806;SDS011;58882;52.170;5.386;2022-08-19T09:52:52;16.38;;;10.27;;
70806;SDS011;58882;52.170;5.386;2022-08-19T09:55:43;16.23;;;10.45;;
70806;SDS011;58882;52.170;5.386;2022-08-19T09:58:17;16.92;;;10.05;;
70806;SDS011;58882;52.170;5.386;2022-08-19T10:01:18;17.00;;;10.88;;
70806;SDS011;58882;52.170;5.386;2022-08-19T10:04:00;15.50;;;9.63;;
70806;SDS011;58882;52.170;5.386;2022-08-19T10:07:01;15.25;;;10.02;;
70806;SDS011;58882;52.170;5.386;2022-08-19T10:09:41;14.82;;;9.70;;
70806;SDS011;58882;52.170;5.386;2022-08-19T10:12:28;14.73;;;9.98;;
70806;SDS011;58882;52.170;5.386;2022-08-19T10:15:08;15.50;;;9.18;;
70806;SDS011;58882;52.170;5.386;2022-08-19T10:18:08;16.52;;;10.27;;
70806;SDS011;58882;52.170;5.386;2022-08-19T10:20:49;13.75;;;8.73;;
70806;SDS011;58882;52.170;5.386;2022-08-19T10:23:37;15.32;;;9.25;;
70806;SDS011;58882;52.170;5.386;2022-08-19T10:26:20;15.98;;;9.48;;
70806;SDS011;58882;52.170;5.386;2022-08-19T10:29:09;14.98;;;9.27;;
70806;SDS011;58882;52.170;5.386;2022-08-19T10:32:06;14.38;;;8.85;;
70806;SDS011;58882;52.170;5.386;2022-08-19T10:34:55;15.57;;;9.52;;
70806;SDS011;58882;52.170;5.386;2022-08-19T10:37:37;15.55;;;9.25;;
70806;SDS011;58882;52.170;5.386;2022-08-19T10:40:32;14.85;;;8.60;;
70806;SDS011;58882;52.170;5.386;2022-08-19T10:43:19;13.30;;;8.60;;
70806;SDS011;58882;52.170;5.386;2022-08-19T10:45:59;13.55;;;8.95;;
70806;SDS011;58882;52.170;5.386;2022-08-19T10:48:55;13.80;;;8.70;;
70806;SDS011;58882;52.170;5.386;2022-08-19T10:51:28;14.13;;;9.02;;
70806;SDS011;58882;52.170;5.386;2022-08-19T10:54:41;15.00;;;9.40;;
70806;SDS011;58882;52.170;5.386;2022-08-19T10:57:40;13.88;;;9.05;;
70806;SDS011;58882;52.170;5.386;2022-08-19T11:00:41;13.93;;;9.30;;
70806;SDS011;58882;52.170;5.386;2022-08-19T11:03:16;12.95;;;9.80;;
70806;SDS011;58882;52.170;5.386;2022-08-19T11:06:10;13.85;;;9.50;;
70806;SDS011;58882;52.170;5.386;2022-08-19T11:08:51;15.02;;;9.38;;
70806;SDS011;58882;52.170;5.386;2022-08-19T11:11:39;13.52;;;9.70;;
70806;SDS011;58882;52.170;5.386;2022-08-19T11:14:20;13.45;;;9.52;;
70806;SDS011;58882;52.170;5.386;2022-08-19T11:17:10;14.70;;;10.23;;
70806;SDS011;58882;52.170;5.386;2022-08-19T11:19:46;13.45;;;9.95;;
70806;SDS011;58882;52.170;5.386;2022-08-19T11:22:40;15.05;;;10.90;;
70806;SDS011;58882;52.170;5.386;2022-08-19T11:25:14;15.13;;;9.77;;
70806;SDS011;58882;52.170;5.386;2022-08-19T11:28:08;14.00;;;9.55;;
70806;SDS011;58882;52.170;5.386;2022-08-19T11:31:02;14.60;;;10.60;;
70806;SDS011;58882;52.170;5.386;2022-08-19T11:33:42;15.73;;;10.38;;
70806;SDS011;58882;52.170;5.386;2022-08-19T11:36:36;16.38;;;11.45;;
70806;SDS011;58882;52.170;5.386;2022-08-19T11:39:19;14.38;;;10.85;;
70806;SDS011;58882;52.170;5.386;2022-08-19T11:42:07;15.82;;;10.60;;
70806;SDS011;58882;52.170;5.386;2022-08-19T11:45:05;16.67;;;10.95;;
70806;SDS011;58882;52.170;5.386;2022-08-19T11:47:53;14.73;;;10.88;;
70806;SDS011;58882;52.170;5.386;2022-08-19T11:50:33;15.52;;;11.00;;
70806;SDS011;58882;52.170;5.386;2022-08-19T11:53:29;14.10;;;10.73;;
70806;SDS011;58882;52.170;5.386;2022-08-19T11:56:04;14.02;;;10.73;;
70806;SDS011;58882;52.170;5.386;2022-08-19T11:58:59;17.45;;;11.43;;
70806;SDS011;58882;52.170;5.386;2022-08-19T12:01:46;14.77;;;10.70;;
70806;SDS011;58882;52.170;5.386;2022-08-19T12:04:33;17.50;;;11.98;;
70806;SDS011;58882;52.170;5.386;2022-08-19T12:07:14;15.65;;;11.15;;
70806;SDS011;58882;52.170;5.386;2022-08-19T12:10:08;16.13;;;11.45;;
70806;SDS011;58882;52.170;5.386;2022-08-19T12:13:05;16.75;;;10.80;;
70806;SDS011;58882;52.170;5.386;2022-08-19T12:15:48;15.55;;;10.70;;
70806;SDS011;58882;52.170;5.386;2022-08-19T12:18:35;16.92;;;11.75;;
70806;SDS011;58882;52.170;5.386;2022-08-19T12:21:16;17.20;;;11.20;;
70806;SDS011;58882;52.170;5.386;2022-08-19T12:24:07;18.60;;;11.40;;
70806;SDS011;58882;52.170;5.386;2022-08-19T12:26:47;17.30;;;10.75;;
70806;SDS011;58882;52.170;5.386;2022-08-19T12:29:41;17.80;;;11.27;;
70806;SDS011;58882;52.170;5.386;2022-08-19T12:32:35;14.73;;;10.98;;
70806;SDS011;58882;52.170;5.386;2022-08-19T12:35:15;18.02;;;11.75;;
70806;SDS011;58882;52.170;5.386;2022-08-19T12:38:02;16.88;;;11.73;;
70806;SDS011;58882;52.170;5.386;2022-08-19T12:40:46;17.02;;;11.55;;
70806;SDS011;58882;52.170;5.386;2022-08-19T12:43:39;15.05;;;10.50;;
70806;SDS011;58882;52.170;5.386;2022-08-19T12:46:13;16.83;;;10.93;;
70806;SDS011;58882;52.170;5.386;2022-08-19T12:49:07;13.88;;;9.88;;
70806;SDS011;58882;52.170;5.386;2022-08-19T12:52:07;15.00;;;9.95;;
70806;SDS011;58882;52.170;5.386;2022-08-19T12:54:58;14.02;;;9.30;;
70806;SDS011;58882;52.170;5.386;2022-08-19T12:57:38;14.07;;;9.32;;
70806;SDS011;58882;52.170;5.386;2022-08-19T13:00:25;12.43;;;8.63;;
70806;SDS011;58882;52.170;5.386;2022-08-19T13:03:05;13.15;;;8.88;;
70806;SDS011;58882;52.170;5.386;2022-08-19T13:05:52;12.48;;;8.55;;
70806;SDS011;58882;52.170;5.386;2022-08-19T13:08:25;13.02;;;8.25;;
70806;SDS011;58882;52.170;5.386;2022-08-19T13:11:20;13.27;;;7.80;;
70806;SDS011;58882;52.170;5.386;2022-08-19T13:13:56;10.07;;;7.53;;
70806;SDS011;58882;52.170;5.386;2022-08-19T13:16:50;13.07;;;7.70;;
70806;SDS011;58882;52.170;5.386;2022-08-19T13:19:23;10.88;;;7.68;;
70806;SDS011;58882;52.170;5.386;2022-08-19T13:22:18;11.77;;;7.72;;
70806;SDS011;58882;52.170;5.386;2022-08-19T13:24:58;10.95;;;7.60;;
70806;SDS011;58882;52.170;5.386;2022-08-19T13:27:45;12.25;;;7.20;;
70806;SDS011;58882;52.170;5.386;2022-08-19T13:30:26;12.02;;;7.68;;
70806;SDS011;58882;52.170;5.386;2022-08-19T13:33:31;14.77;;;8.27;;
70806;SDS011;58882;52.170;5.386;2022-08-19T13:36:13;13.63;;;8.05;;
70806;SDS011;58882;52.170;5.386;2022-08-19T13:39:07;11.48;;;8.27;;
70806;SDS011;58882;52.170;5.386;2022-08-19T13:41:48;15.23;;;9.95;;
70806;SDS011;58882;52.170;5.386;2022-08-19T13:44:36;16.08;;;10.20;;
70806;SDS011;58882;52.170;5.386;2022-08-19T13:47:09;14.45;;;9.65;;
70806;SDS011;58882;52.170;5.386;2022-08-19T13:50:03;11.55;;;8.32;;
70806;SDS011;58882;52.170;5.386;2022-08-19T13:52:38;12.70;;;9.02;;
70806;SDS011;58882;52.170;5.386;2022-08-19T13:55:32;13.07;;;8.48;;
70806;SDS011;58882;52.170;5.386;2022-08-19T13:58:12;15.45;;;8.75;;
70806;SDS011;58882;52.170;5.386;2022-08-19T14:01:00;11.23;;;8.52;;
70806;SDS011;58882;52.170;5.386;2022-08-19T14:03:40;15.82;;;10.48;;
70806;SDS011;58882;52.170;5.386;2022-08-19T14:06:34;15.25;;;9.02;;
70806;SDS011;58882;52.170;5.386;2022-08-19T14:09:14;11.90;;;7.95;;
70806;SDS011;58882;52.170;5.386;2022-08-19T14:12:01;11.20;;;7.72;;
70806;SDS011;58882;52.170;5.386;2022-08-19T14:14:41;15.10;;;7.70;;
70806;SDS011;58882;52.170;5.386;2022-08-19T14:17:28;14.25;;;7.82;;
70806;SDS011;58882;52.170;5.386;2022-08-19T14:20:09;12.88;;;7.90;;
70806;SDS011;58882;52.170;5.386;2022-08-19T14:22:57;11.20;;;7.35;;
70806;SDS011;58882;52.170;5.386;2022-08-19T14:25:38;11.82;;;6.80;;
70806;SDS011;58882;52.170;5.386;2022-08-19T14:28:26;12.18;;;6.97;;
70806;SDS011;58882;52.170;5.386;2022-08-19T14:31:14;10.45;;;6.53;;
70806;SDS011;58882;52.170;5.386;2022-08-19T14:34:02;12.70;;;7.32;;
70806;SDS011;58882;52.170;5.386;2022-08-19T14:36:49;13.02;;;6.80;;
70806;SDS011;58882;52.170;5.386;2022-08-19T14:39:29;11.73;;;6.75;;
70806;SDS011;58882;52.170;5.386;2022-08-19T14:42:16;10.00;;;6.72;;
70806;SDS011;58882;52.170;5.386;2022-08-19T14:44:59;10.27;;;6.63;;
70806;SDS011;58882;52.170;5.386;2022-08-19T14:47:47;11.35;;;6.72;;
70806;SDS011;58882;52.170;5.386;2022-08-19T14:50:28;10.55;;;6.57;;
70806;SDS011;58882;52.170;5.386;2022-08-19T14:53:16;10.00;;;6.05;;
70806;SDS011;58882;52.170;5.386;2022-08-19T14:56:11;10.85;;;6.00;;
70806;SDS011;58882;52.170;5.386;2022-08-19T14:58:53;8.55;;;5.43;;
70806;SDS011;58882;52.170;5.386;2022-08-19T15:01:41;9.52;;;5.60;;
70806;SDS011;58882;52.170;5.386;2022-08-19T15:04:14;8.80;;;5.40;;
70806;SDS011;58882;52.170;5.386;2022-08-19T15:07:12;8.82;;;4.90;;
70806;SDS011;58882;52.170;5.386;2022-08-19T15:09:53;10.95;;;5.68;;
70806;SDS011;58882;52.170;5.386;2022-08-19T15:12:40;8.77;;;4.55;;
70806;SDS011;58882;52.170;5.386;2022-08-19T15:15:23;6.97;;;4.30;;
70806;SDS011;58882;52.170;5.386;2022-08-19T15:18:10;7.95;;;4.60;;
70806;SDS011;58882;52.170;5.386;2022-08-19T15:20:51;7.28;;;4.25;;
70806;SDS011;58882;52.170;5.386;2022-08-19T15:23:45;8.65;;;4.30;;
70806;SDS011;58882;52.170;5.386;2022-08-19T15:26:27;8.77;;;4.38;;
70806;SDS011;58882;52.170;5.386;2022-08-19T15:29:14;10.30;;;4.78;;
70806;SDS011;58882;52.170;5.386;2022-08-19T15:31:55;9.88;;;4.65;;
70806;SDS011;58882;52.170;5.386;2022-08-19T15:34:42;10.90;;;4.63;;
70806;SDS011;58882;52.170;5.386;2022-08-19T15:37:22;9.98;;;4.57;;
70806;SDS011;58882;52.170;5.386;2022-08-19T15:40:10;12.52;;;4.20;;
70806;SDS011;58882;52.170;5.386;2022-08-19T15:42:50;9.70;;;4.43;;
70806;SDS011;58882;52.170;5.386;2022-08-19T15:45:38;11.85;;;3.85;;
70806;SDS011;58882;52.170;5.386;2022-08-19T15:48:21;10.23;;;3.88;;
70806;SDS011;58882;52.170;5.386;2022-08-19T15:51:08;7.63;;;3.72;;
70806;SDS011;58882;52.170;5.386;2022-08-19T15:53:48;9.30;;;3.60;;
70806;SDS011;58882;52.170;5.386;2022-08-19T15:56:36;7.28;;;3.60;;
70806;SDS011;58882;52.170;5.386;2022-08-19T15:59:36;10.15;;;3.65;;
70806;SDS011;58882;52.170;5.386;2022-08-19T16:02:43;7.63;;;3.55;;
70806;SDS011;58882;52.170;5.386;2022-08-19T16:05:42;7.07;;;3.17;;
70806;SDS011;58882;52.170;5.386;2022-08-19T16:08:56;5.38;;;3.13;;
70806;SDS011;58882;52.170;5.386;2022-08-19T16:11:33;5.07;;;2.92;;
70806;SDS011;58882;52.170;5.386;2022-08-19T16:14:35;6.80;;;3.30;;
70806;SDS011;58882;52.170;5.386;2022-08-19T16:17:16;6.03;;;3.13;;
70806;SDS011;58882;52.170;5.386;2022-08-19T16:20:10;4.65;;;2.95;;
70806;SDS011;58882;52.170;5.386;2022-08-19T16:22:43;5.82;;;2.72;;
70806;SDS011;58882;52.170;5.386;2022-08-19T16:25:38;5.75;;;3.00;;
70806;SDS011;58882;52.170;5.386;2022-08-19T16:28:11;5.88;;;2.90;;
70806;SDS011;58882;52.170;5.386;2022-08-19T16:31:05;6.00;;;3.10;;
70806;SDS011;58882;52.170;5.386;2022-08-19T16:33:59;5.20;;;2.67;;
70806;SDS011;58882;52.170;5.386;2022-08-19T16:36:39;4.97;;;2.78;;
70806;SDS011;58882;52.170;5.386;2022-08-19T16:39:27;6.40;;;2.67;;
70806;SDS011;58882;52.170;5.386;2022-08-19T16:42:08;4.68;;;2.78;;
70806;SDS011;58882;52.170;5.386;2022-08-19T16:44:57;6.50;;;3.13;;
70806;SDS011;58882;52.170;5.386;2022-08-19T16:47:37;4.60;;;2.83;;